• Join FlightAware (Why Join?)
  • Login
  • US Flag 
12:53PM EST


 

Airport Tracker/Info


-or-


 

Live Flight TrackerFlight Track Log ✈ ASQ5941 ✈ 10-Jul-2013 ✈ KORD - KAVP

Flight Track Log - Related Links

Times and Time Zones

All times are in EDT time to prevent confusion due to time zone crossing. See the ASQ5941 flight status page for this flight to view local times or setup timezone preferences in your user account.

Time Position Orientation Groundspeed Altitude Reporting Facility
EDT Latitude Longitude Course Direction KTS MPH feet Rate Location/Type
04:03PM 42.0333 -87.9167 80° East 220 253 2,500  Level Chicago TRACON
04:04PM 42.0753 -87.8692 40° Northeast 230 265 4,200 1,860 Climbing Chicago Center
04:05PM 42.0434 -87.4402 83° East  Level FlightAware Approximate
04:05PM 42.1117 -87.7819 61° Northeast 274 315 6,400  Level Chicago Center
04:06PM 42.0630 -87.2827 78° East  Level FlightAware Approximate
04:06PM 42.1125 -87.6714 89° East 293 337 8,400  Level Chicago Center
04:07PM 42.0873 -87.1263 77° East  Level FlightAware Approximate
04:07PM 42.1128 -87.5342 90° East 307 353 10,700  Level Chicago Center
04:08PM 42.1031 -86.9752 80° East  Level FlightAware Approximate
04:08PM 42.1128 -87.4111 90° East 323 372 12,200  Level Chicago Center
04:09PM 42.1128 -87.2842 90° East 337 388 13,700 1,260 Climbing Chicago Center
04:10PM 42.1119 -87.1531 90° East 349 402 14,900 1,080 Climbing Chicago Center
04:11PM 42.1131 -87.0142 89° East 368 423 16,000 1,080 Climbing Chicago Center
04:12PM 42.1189 -86.8389 87° East 390 449 17,200 1,080 Climbing Chicago Center
04:13PM 42.1247 -86.6897 87° East 400 460 18,300 960 Climbing Chicago Center
04:14PM 42.1300 -86.5431 87° East 408 470 19,300 960 Climbing Chicago Center
04:15PM 42.1350 -86.3883 87° East 413 475 20,400 960 Climbing Chicago Center
04:16PM 42.1406 -86.2319 87° East 417 480 21,400 1,080 Climbing Chicago Center
04:17PM 42.1653 -86.0433 80° East 425 489 22,700 1,080 Climbing Chicago Center
04:19PM 42.1842 -85.8989 80° East 427 491 23,700 960 Climbing Chicago Center
04:20PM 42.2053 -85.7425 80° East 427 491 24,700 960 Climbing Chicago Center
04:21PM 42.2278 -85.5814 79° East 436 502 25,700 1,020 Climbing Chicago Center
04:22PM 42.2528 -85.3892 80° East 436 502 26,900 1,020 Climbing Chicago Center
04:23PM 42.2742 -85.2247 80° East 446 513 27,900 960 Climbing Chicago Center
04:24PM 42.2958 -85.0631 80° East 444 511 29,000 960 Climbing Chicago Center
04:25PM 42.3008 -84.9003 88° East 438 504 30,000 960 Climbing Chicago Center
04:26PM 42.3025 -84.7414 89° East 429 494 31,000 1,080 Climbing Chicago Center
04:27PM 42.3031 -84.5506 90° East 427 491 32,300 1,080 Climbing Chicago Center
04:28PM 42.3031 -84.3942 90° East 422 486 33,300 960 Climbing Chicago Center
04:29PM 42.3006 -84.2836 92° East 421 484 34,000 960 Climbing Cleveland Center
04:30PM 42.2992 -84.1261 91° East 416 479 35,000 480 Climbing Cleveland Center
04:31PM 42.2997 -83.9689 90° East 416 479 35,000  Level Cleveland Center
04:32PM 42.3006 -83.7978 90° East 435 501 35,000  Level Cleveland Center
04:33PM 42.2992 -83.6236 91° East 447 514 35,000  Level Cleveland Center
04:34PM 42.2969 -83.4606 91° East 470 541 35,000  Level Cleveland Center
04:35PM 42.2953 -83.2753 91° East 489 563 35,000  Level Cleveland Center
04:36PM 42.2953 -83.0900 90° East 494 568 35,000  Level Cleveland Center
04:37PM 42.2928 -82.9158 91° East 487 560 35,000  Level Cleveland Center
04:38PM 42.2900 -82.7389 91° East 475 547 35,000  Level Cleveland Center
04:39PM 42.2869 -82.5592 91° East 475 547 35,000  Level Cleveland Center
04:40PM 42.2856 -82.3822 91° East 480 552 35,000  Level Cleveland Center
04:41PM 42.2842 -82.2053 91° East 475 547 35,000  Level Cleveland Center
04:42PM 42.2783 -82.0117 92° East 480 552 35,000  Level Cleveland Center
04:43PM 42.2761 -81.8319 91° East 479 551 35,000  Level Cleveland Center
04:44PM 42.2717 -81.6550 92° East 479 551 35,000  Level Cleveland Center
04:45PM 42.2669 -81.4783 92° East 479 551 35,000  Level Cleveland Center
04:46PM 42.2639 -81.3156 91° East 479 551 35,000  Level Cleveland Center
04:47PM 42.2589 -81.1275 92° East 486 559 35,000  Level Cleveland Center
04:48PM 42.2636 -80.9450 88° East 481 554 35,000  Level Cleveland Center
04:49PM 42.2869 -80.7711 80° East 476 548 35,000  Level Cleveland Center
04:50PM 42.3122 -80.5858 79° East 488 562 35,000  Level Cleveland Center
04:51PM 42.3350 -80.4061 80° East 488 562 35,000  Level Cleveland Center
04:52PM 42.3594 -80.2094 80° East 488 562 35,000  Level Cleveland Center
04:53PM 42.3858 -80.0294 79° East 488 562 35,000  Level Cleveland Center
04:54PM 42.4142 -79.8492 78° East 488 562 35,000  Level Cleveland Center
04:55PM 42.4358 -79.6661 81° East 488 562 35,000  Level Cleveland Center
04:56PM 42.4031 -79.4922 104° East 473 544 35,000  Level Cleveland Center
04:57PM 42.3617 -79.3186 108° East 467 537 35,000  Level Cleveland Center
04:58PM 42.3200 -79.1483 108° East 473 544 35,000  Level Cleveland Center
04:59PM 42.2803 -78.9750 107° East 479 551 35,000  Level Cleveland Center
05:00PM 42.2400 -78.8022 107° East 479 551 35,000  Level Cleveland Center
05:01PM 42.1978 -78.6325 109° East 479 551 35,000 -600 Level Cleveland Center
05:02PM 42.1531 -78.4572 109° East 485 558 33,900 -1,800 Descending Cleveland Center
05:03PM 42.1100 -78.2769 108° East 490 564 31,500 -2,400 Descending Cleveland Center
05:04PM 42.0714 -78.1272 109° East 490 564 29,200 -2,220 Descending Cleveland Center
05:05PM 42.0300 -77.9553 108° East 484 557 27,100 -1,980 Descending Cleveland Center
05:06PM 41.9478 -77.6394 109° East 493 567 23,600 -1,440 Descending New York Center
05:07PM 41.9031 -77.4703 110° East 487 560 23,000 -300 Descending New York Center
05:08PM 41.8606 -77.3017 109° East 482 555 23,000  Level New York Center
05:09PM 41.8175 -77.1358 109° East 482 555 23,000 -540 Level New York Center
05:10PM 41.7722 -76.9647 109° East 482 555 22,000 -2,040 Descending New York Center
05:11PM 41.7269 -76.7936 109° East 465 535 19,000 -3,120 Descending New York Center
05:12PM 41.6864 -76.6456 110° East 442 509 15,700 -3,000 Descending New York Center
05:13PM 41.6481 -76.4950 109° East 428 493 13,000 -2,520 Descending New York Center
05:14PM 41.6144 -76.3700 110° East 409 471 10,800 -1,560 Descending New York Center
05:15PM 41.5825 -76.2481 109° East 370 426 10,000 -1,320 Descending New York Center
05:16PM 41.5481 -76.1344 112° Southeast 311 358 8,200 -1,740 Descending New York Center
05:17PM 41.5342 -76.0308 100° East 287 330 6,500 -1,740 Descending New York Center
05:18PM 41.5242 -75.9247 97° East 281 323 4,800 -1,320 Descending New York Center
05:19PM 41.5192 -75.8439 95° East 281 323 4,000 -420 Descending New York Center
05:20PM 41.5100 -75.7214 96° East 276 318 4,000  Level New York Center
05:21PM 41.5156 -75.6358 85° East 267 307 4,000 -240 Level New York Center
05:22PM 41.4667 -75.6103 159° South 170 196 3,600 -660 Descending New York Center
05:23PM 41.4211 -75.6511 214° Southwest 158 182 2,700 -840 Descending New York Center
05:24PM 41.3928 -75.6797 217° Southwest 152 175 1,900 -720 Descending New York Center
05:25PM 41.3606 -75.7050 210° Southwest 145 167 1,300 -360 Descending New York Center
05:26PM 41.3306 -75.7275 209° Southwest 145 167 1,300 3,780 Level New York Center
05:27PM 41.2983 -75.7528 211° Southwest 145 167 9,000 7,680 Climbing New York Center